sensor_id;sensor_type;location;lat;lon;timestamp;P1;durP1;ratioP1;P2;durP2;ratioP2
41927;SDS011;27616;51.420;6.788;2022-09-28T00:01:25;4.30;;;2.37;;
41927;SDS011;27616;51.420;6.788;2022-09-28T00:03:55;3.97;;;2.20;;
41927;SDS011;27616;51.420;6.788;2022-09-28T00:06:24;4.93;;;2.20;;
41927;SDS011;27616;51.420;6.788;2022-09-28T00:08:51;4.93;;;2.67;;
41927;SDS011;27616;51.420;6.788;2022-09-28T00:11:18;4.23;;;2.70;;
41927;SDS011;27616;51.420;6.788;2022-09-28T00:13:47;4.50;;;3.00;;
41927;SDS011;27616;51.420;6.788;2022-09-28T00:16:18;5.67;;;3.07;;
41927;SDS011;27616;51.420;6.788;2022-09-28T00:18:45;4.78;;;2.80;;
41927;SDS011;27616;51.420;6.788;2022-09-28T00:21:12;5.03;;;3.30;;
41927;SDS011;27616;51.420;6.788;2022-09-28T00:23:40;6.50;;;3.63;;
41927;SDS011;27616;51.420;6.788;2022-09-28T00:26:26;5.37;;;3.10;;
41927;SDS011;27616;51.420;6.788;2022-09-28T00:28:53;5.10;;;3.10;;
41927;SDS011;27616;51.420;6.788;2022-09-28T00:31:20;6.40;;;3.90;;
41927;SDS011;27616;51.420;6.788;2022-09-28T00:33:50;4.80;;;3.40;;
41927;SDS011;27616;51.420;6.788;2022-09-28T00:36:17;6.13;;;3.60;;
41927;SDS011;27616;51.420;6.788;2022-09-28T00:38:43;6.50;;;4.03;;
41927;SDS011;27616;51.420;6.788;2022-09-28T00:41:10;6.77;;;4.10;;
41927;SDS011;27616;51.420;6.788;2022-09-28T00:43:36;5.33;;;3.33;;
41927;SDS011;27616;51.420;6.788;2022-09-28T00:46:03;8.60;;;3.70;;
41927;SDS011;27616;51.420;6.788;2022-09-28T00:48:34;5.90;;;4.00;;
41927;SDS011;27616;51.420;6.788;2022-09-28T00:51:08;6.50;;;3.77;;
41927;SDS011;27616;51.420;6.788;2022-09-28T00:53:36;5.30;;;3.43;;
41927;SDS011;27616;51.420;6.788;2022-09-28T00:56:08;6.47;;;4.00;;
41927;SDS011;27616;51.420;6.788;2022-09-28T00:58:40;6.90;;;4.03;;
41927;SDS011;27616;51.420;6.788;2022-09-28T01:01:09;6.40;;;3.83;;
41927;SDS011;27616;51.420;6.788;2022-09-28T01:03:36;6.37;;;4.07;;
41927;SDS011;27616;51.420;6.788;2022-09-28T01:06:05;7.90;;;4.22;;
41927;SDS011;27616;51.420;6.788;2022-09-28T01:08:32;7.90;;;4.73;;
41927;SDS011;27616;51.420;6.788;2022-09-28T01:11:01;7.47;;;4.50;;
41927;SDS011;27616;51.420;6.788;2022-09-28T01:13:27;7.40;;;4.60;;
41927;SDS011;27616;51.420;6.788;2022-09-28T01:16:10;9.02;;;4.82;;
41927;SDS011;27616;51.420;6.788;2022-09-28T01:24:46;8.53;;;5.60;;
41927;SDS011;27616;51.420;6.788;2022-09-28T01:30:13;9.50;;;5.47;;
41927;SDS011;27616;51.420;6.788;2022-09-28T01:35:29;8.60;;;5.50;;
41927;SDS011;27616;51.420;6.788;2022-09-28T01:38:02;8.87;;;6.17;;
41927;SDS011;27616;51.420;6.788;2022-09-28T01:40:45;9.03;;;5.70;;
41927;SDS011;27616;51.420;6.788;2022-09-28T01:43:16;8.67;;;5.93;;
41927;SDS011;27616;51.420;6.788;2022-09-28T01:45:47;7.63;;;5.50;;
41927;SDS011;27616;51.420;6.788;2022-09-28T01:48:23;8.60;;;5.40;;
41927;SDS011;27616;51.420;6.788;2022-09-28T01:51:00;7.73;;;5.23;;
41927;SDS011;27616;51.420;6.788;2022-09-28T01:53:38;7.90;;;5.30;;
41927;SDS011;27616;51.420;6.788;2022-09-28T01:56:13;8.70;;;5.33;;
41927;SDS011;27616;51.420;6.788;2022-09-28T01:58:44;7.97;;;5.20;;
41927;SDS011;27616;51.420;6.788;2022-09-28T02:01:19;8.53;;;5.83;;
41927;SDS011;27616;51.420;6.788;2022-09-28T02:04:03;9.20;;;5.90;;
41927;SDS011;27616;51.420;6.788;2022-09-28T02:06:37;10.40;;;6.77;;
41927;SDS011;27616;51.420;6.788;2022-09-28T02:09:08;9.40;;;6.23;;
41927;SDS011;27616;51.420;6.788;2022-09-28T02:11:42;10.80;;;7.13;;
41927;SDS011;27616;51.420;6.788;2022-09-28T02:14:12;11.43;;;7.07;;
41927;SDS011;27616;51.420;6.788;2022-09-28T02:16:44;9.60;;;6.33;;
41927;SDS011;27616;51.420;6.788;2022-09-28T02:19:19;10.52;;;6.57;;
41927;SDS011;27616;51.420;6.788;2022-09-28T02:27:02;12.50;;;6.77;;
41927;SDS011;27616;51.420;6.788;2022-09-28T02:29:34;9.57;;;6.27;;
41927;SDS011;27616;51.420;6.788;2022-09-28T02:31:59;7.63;;;6.07;;
41927;SDS011;27616;51.420;6.788;2022-09-28T02:34:25;7.90;;;6.20;;
41927;SDS011;27616;51.420;6.788;2022-09-28T02:36:51;10.97;;;6.20;;
41927;SDS011;27616;51.420;6.788;2022-09-28T02:39:17;11.40;;;6.77;;
41927;SDS011;27616;51.420;6.788;2022-09-28T02:53:23;8.83;;;6.70;;
41927;SDS011;27616;51.420;6.788;2022-09-28T03:07:23;10.90;;;7.73;;
41927;SDS011;27616;51.420;6.788;2022-09-28T03:12:18;10.60;;;7.68;;
41927;SDS011;27616;51.420;6.788;2022-09-28T03:14:45;10.63;;;8.00;;
41927;SDS011;27616;51.420;6.788;2022-09-28T03:17:12;11.07;;;7.27;;
41927;SDS011;27616;51.420;6.788;2022-09-28T03:19:37;10.60;;;7.40;;
41927;SDS011;27616;51.420;6.788;2022-09-28T03:22:03;9.40;;;7.50;;
41927;SDS011;27616;51.420;6.788;2022-09-28T03:24:29;10.23;;;6.87;;
41927;SDS011;27616;51.420;6.788;2022-09-28T03:26:55;11.57;;;7.20;;
41927;SDS011;27616;51.420;6.788;2022-09-28T03:29:21;9.83;;;7.07;;
41927;SDS011;27616;51.420;6.788;2022-09-28T03:31:52;15.23;;;8.57;;
41927;SDS011;27616;51.420;6.788;2022-09-28T03:34:18;11.07;;;8.20;;
41927;SDS011;27616;51.420;6.788;2022-09-28T03:36:44;10.87;;;8.53;;
41927;SDS011;27616;51.420;6.788;2022-09-28T03:39:10;12.23;;;8.33;;
41927;SDS011;27616;51.420;6.788;2022-09-28T03:41:36;12.20;;;8.03;;
41927;SDS011;27616;51.420;6.788;2022-09-28T03:44:03;12.33;;;7.70;;
41927;SDS011;27616;51.420;6.788;2022-09-28T03:46:31;10.47;;;7.87;;
41927;SDS011;27616;51.420;6.788;2022-09-28T03:49:02;11.27;;;8.00;;
41927;SDS011;27616;51.420;6.788;2022-09-28T03:51:28;10.83;;;8.23;;
41927;SDS011;27616;51.420;6.788;2022-09-28T03:53:54;10.17;;;7.53;;
41927;SDS011;27616;51.420;6.788;2022-09-28T03:56:20;11.83;;;8.67;;
41927;SDS011;27616;51.420;6.788;2022-09-28T03:58:46;16.03;;;9.77;;
41927;SDS011;27616;51.420;6.788;2022-09-28T04:01:13;10.30;;;8.00;;
41927;SDS011;27616;51.420;6.788;2022-09-28T04:03:44;11.60;;;8.17;;
41927;SDS011;27616;51.420;6.788;2022-09-28T04:06:10;15.27;;;9.43;;
41927;SDS011;27616;51.420;6.788;2022-09-28T04:08:37;13.03;;;9.20;;
41927;SDS011;27616;51.420;6.788;2022-09-28T04:11:03;12.50;;;9.20;;
41927;SDS011;27616;51.420;6.788;2022-09-28T04:13:29;13.87;;;9.50;;
41927;SDS011;27616;51.420;6.788;2022-09-28T04:15:57;15.57;;;10.77;;
41927;SDS011;27616;51.420;6.788;2022-09-28T04:18:27;13.47;;;10.07;;
41927;SDS011;27616;51.420;6.788;2022-09-28T04:21:12;13.17;;;9.70;;
41927;SDS011;27616;51.420;6.788;2022-09-28T04:23:43;13.53;;;9.57;;
41927;SDS011;27616;51.420;6.788;2022-09-28T04:26:12;14.60;;;9.83;;
41927;SDS011;27616;51.420;6.788;2022-09-28T04:28:41;13.63;;;10.07;;
41927;SDS011;27616;51.420;6.788;2022-09-28T04:31:26;14.67;;;10.37;;
41927;SDS011;27616;51.420;6.788;2022-09-28T04:33:55;15.37;;;10.40;;
41927;SDS011;27616;51.420;6.788;2022-09-28T04:36:22;16.60;;;11.27;;
41927;SDS011;27616;51.420;6.788;2022-09-28T04:38:52;15.47;;;11.17;;
41927;SDS011;27616;51.420;6.788;2022-09-28T04:41:19;16.23;;;11.10;;
41927;SDS011;27616;51.420;6.788;2022-09-28T04:43:47;17.57;;;11.30;;
41927;SDS011;27616;51.420;6.788;2022-09-28T04:46:14;15.17;;;11.07;;
41927;SDS011;27616;51.420;6.788;2022-09-28T04:48:47;17.37;;;11.73;;
41927;SDS011;27616;51.420;6.788;2022-09-28T04:51:34;19.10;;;12.33;;
41927;SDS011;27616;51.420;6.788;2022-09-28T04:54:00;17.57;;;11.97;;
41927;SDS011;27616;51.420;6.788;2022-09-28T04:56:26;16.47;;;11.97;;
41927;SDS011;27616;51.420;6.788;2022-09-28T04:58:52;16.70;;;12.20;;
41927;SDS011;27616;51.420;6.788;2022-09-28T05:01:18;22.73;;;14.60;;
41927;SDS011;27616;51.420;6.788;2022-09-28T05:03:53;19.97;;;13.10;;
41927;SDS011;27616;51.420;6.788;2022-09-28T05:06:38;17.60;;;13.60;;
41927;SDS011;27616;51.420;6.788;2022-09-28T05:09:05;18.27;;;12.87;;
41927;SDS011;27616;51.420;6.788;2022-09-28T05:11:33;20.80;;;13.50;;
41927;SDS011;27616;51.420;6.788;2022-09-28T05:14:00;17.73;;;13.07;;
41927;SDS011;27616;51.420;6.788;2022-09-28T05:16:26;17.83;;;13.97;;
41927;SDS011;27616;51.420;6.788;2022-09-28T05:19:12;20.47;;;13.60;;
41927;SDS011;27616;51.420;6.788;2022-09-28T05:21:42;18.83;;;12.97;;
41927;SDS011;27616;51.420;6.788;2022-09-28T05:26:36;19.67;;;13.67;;
41927;SDS011;27616;51.420;6.788;2022-09-28T05:29:04;18.47;;;13.07;;
41927;SDS011;27616;51.420;6.788;2022-09-28T05:32:02;20.00;;;13.57;;
41927;SDS011;27616;51.420;6.788;2022-09-28T05:34:34;21.83;;;15.90;;
41927;SDS011;27616;51.420;6.788;2022-09-28T05:37:00;18.60;;;13.60;;
41927;SDS011;27616;51.420;6.788;2022-09-28T05:39:28;18.07;;;12.77;;
41927;SDS011;27616;51.420;6.788;2022-09-28T05:41:54;20.63;;;14.10;;
41927;SDS011;27616;51.420;6.788;2022-09-28T05:44:22;17.60;;;12.60;;
41927;SDS011;27616;51.420;6.788;2022-09-28T05:46:51;19.87;;;13.67;;
41927;SDS011;27616;51.420;6.788;2022-09-28T05:49:17;20.10;;;14.37;;
41927;SDS011;27616;51.420;6.788;2022-09-28T05:51:45;20.60;;;13.70;;
41927;SDS011;27616;51.420;6.788;2022-09-28T05:54:11;18.10;;;13.40;;
41927;SDS011;27616;51.420;6.788;2022-09-28T05:56:41;19.97;;;13.00;;
41927;SDS011;27616;51.420;6.788;2022-09-28T05:59:07;19.57;;;14.17;;
41927;SDS011;27616;51.420;6.788;2022-09-28T06:01:34;18.40;;;13.80;;
41927;SDS011;27616;51.420;6.788;2022-09-28T06:04:02;17.23;;;12.60;;
41927;SDS011;27616;51.420;6.788;2022-09-28T06:06:27;18.03;;;13.10;;
41927;SDS011;27616;51.420;6.788;2022-09-28T06:08:55;18.07;;;12.70;;
41927;SDS011;27616;51.420;6.788;2022-09-28T06:11:50;20.67;;;12.30;;
41927;SDS011;27616;51.420;6.788;2022-09-28T06:14:23;19.50;;;13.93;;
41927;SDS011;27616;51.420;6.788;2022-09-28T06:16:51;18.63;;;12.37;;
41927;SDS011;27616;51.420;6.788;2022-09-28T06:19:17;17.50;;;11.83;;
41927;SDS011;27616;51.420;6.788;2022-09-28T06:22:18;19.00;;;12.47;;
41927;SDS011;27616;51.420;6.788;2022-09-28T06:24:53;19.63;;;12.47;;
41927;SDS011;27616;51.420;6.788;2022-09-28T06:27:19;17.33;;;11.53;;
41927;SDS011;27616;51.420;6.788;2022-09-28T06:29:45;19.23;;;12.40;;
41927;SDS011;27616;51.420;6.788;2022-09-28T06:32:11;18.20;;;12.37;;
41927;SDS011;27616;51.420;6.788;2022-09-28T06:34:39;19.53;;;12.43;;
41927;SDS011;27616;51.420;6.788;2022-09-28T06:37:07;16.33;;;11.33;;
41927;SDS011;27616;51.420;6.788;2022-09-28T06:39:34;18.63;;;12.90;;
41927;SDS011;27616;51.420;6.788;2022-09-28T06:41:59;18.17;;;12.00;;
41927;SDS011;27616;51.420;6.788;2022-09-28T06:44:37;16.60;;;11.40;;
41927;SDS011;27616;51.420;6.788;2022-09-28T06:47:36;14.18;;;9.85;;
41927;SDS011;27616;51.420;6.788;2022-09-28T06:50:09;14.77;;;9.37;;
41927;SDS011;27616;51.420;6.788;2022-09-28T06:53:06;13.03;;;9.53;;
41927;SDS011;27616;51.420;6.788;2022-09-28T06:55:49;14.17;;;9.10;;
41927;SDS011;27616;51.420;6.788;2022-09-28T06:58:16;14.80;;;9.63;;
41927;SDS011;27616;51.420;6.788;2022-09-28T07:00:44;13.35;;;9.27;;
41927;SDS011;27616;51.420;6.788;2022-09-28T07:03:12;15.17;;;10.27;;
41927;SDS011;27616;51.420;6.788;2022-09-28T07:05:52;16.60;;;10.63;;
41927;SDS011;27616;51.420;6.788;2022-09-28T07:08:38;16.33;;;8.97;;
41927;SDS011;27616;51.420;6.788;2022-09-28T07:11:36;13.27;;;8.57;;
41927;SDS011;27616;51.420;6.788;2022-09-28T07:14:28;13.30;;;9.50;;
41927;SDS011;27616;51.420;6.788;2022-09-28T07:16:54;13.37;;;9.00;;
41927;SDS011;27616;51.420;6.788;2022-09-28T07:19:20;13.40;;;8.33;;
41927;SDS011;27616;51.420;6.788;2022-09-28T07:21:47;11.83;;;7.57;;
41927;SDS011;27616;51.420;6.788;2022-09-28T07:24:16;10.70;;;7.60;;
41927;SDS011;27616;51.420;6.788;2022-09-28T07:26:54;12.03;;;7.57;;
41927;SDS011;27616;51.420;6.788;2022-09-28T07:29:38;10.43;;;7.40;;
41927;SDS011;27616;51.420;6.788;2022-09-28T07:32:21;13.20;;;7.93;;
41927;SDS011;27616;51.420;6.788;2022-09-28T07:34:57;11.30;;;7.10;;
41927;SDS011;27616;51.420;6.788;2022-09-28T07:37:35;9.83;;;6.87;;
41927;SDS011;27616;51.420;6.788;2022-09-28T07:40:03;12.33;;;7.47;;
41927;SDS011;27616;51.420;6.788;2022-09-28T07:42:48;13.80;;;7.37;;
41927;SDS011;27616;51.420;6.788;2022-09-28T07:45:15;16.23;;;6.77;;
41927;SDS011;27616;51.420;6.788;2022-09-28T07:47:41;10.70;;;7.40;;
41927;SDS011;27616;51.420;6.788;2022-09-28T07:50:18;8.90;;;6.10;;
41927;SDS011;27616;51.420;6.788;2022-09-28T07:52:56;12.07;;;7.20;;
41927;SDS011;27616;51.420;6.788;2022-09-28T07:55:42;10.27;;;7.40;;
41927;SDS011;27616;51.420;6.788;2022-09-28T07:58:39;11.73;;;7.03;;
41927;SDS011;27616;51.420;6.788;2022-09-28T08:01:44;11.63;;;7.27;;
41927;SDS011;27616;51.420;6.788;2022-09-28T08:04:12;10.75;;;7.20;;
41927;SDS011;27616;51.420;6.788;2022-09-28T08:06:41;10.00;;;6.30;;
41927;SDS011;27616;51.420;6.788;2022-09-28T08:09:11;12.60;;;7.23;;
41927;SDS011;27616;51.420;6.788;2022-09-28T08:12:05;12.37;;;8.57;;
41927;SDS011;27616;51.420;6.788;2022-09-28T08:14:41;10.20;;;7.63;;
41927;SDS011;27616;51.420;6.788;2022-09-28T08:17:21;14.13;;;8.00;;
41927;SDS011;27616;51.420;6.788;2022-09-28T08:19:50;11.40;;;8.10;;
41927;SDS011;27616;51.420;6.788;2022-09-28T08:22:34;13.23;;;7.60;;
41927;SDS011;27616;51.420;6.788;2022-09-28T08:25:01;11.87;;;8.07;;
41927;SDS011;27616;51.420;6.788;2022-09-28T08:27:27;12.90;;;9.20;;
41927;SDS011;27616;51.420;6.788;2022-09-28T08:29:53;13.47;;;8.57;;
41927;SDS011;27616;51.420;6.788;2022-09-28T08:32:37;14.07;;;8.13;;
41927;SDS011;27616;51.420;6.788;2022-09-28T08:35:22;12.43;;;8.73;;
41927;SDS011;27616;51.420;6.788;2022-09-28T08:38:25;17.40;;;9.63;;
41927;SDS011;27616;51.420;6.788;2022-09-28T08:44:18;13.37;;;8.60;;
41927;SDS011;27616;51.420;6.788;2022-09-28T08:47:15;11.57;;;8.13;;
41927;SDS011;27616;51.420;6.788;2022-09-28T08:50:21;15.17;;;9.13;;
41927;SDS011;27616;51.420;6.788;2022-09-28T08:53:25;17.17;;;8.80;;
41927;SDS011;27616;51.420;6.788;2022-09-28T08:56:23;13.70;;;8.67;;
41927;SDS011;27616;51.420;6.788;2022-09-28T08:59:03;15.53;;;9.37;;
41927;SDS011;27616;51.420;6.788;2022-09-28T09:01:54;17.20;;;9.63;;
41927;SDS011;27616;51.420;6.788;2022-09-28T09:04:24;11.05;;;7.15;;
41927;SDS011;27616;51.420;6.788;2022-09-28T09:30:14;14.90;;;8.07;;
41927;SDS011;27616;51.420;6.788;2022-09-28T09:39:52;11.27;;;7.97;;
41927;SDS011;27616;51.420;6.788;2022-09-28T09:48:20;26.93;;;12.40;;
41927;SDS011;27616;51.420;6.788;2022-09-28T09:50:52;23.60;;;11.43;;
41927;SDS011;27616;51.420;6.788;2022-09-28T09:53:24;16.10;;;10.00;;
41927;SDS011;27616;51.420;6.788;2022-09-28T09:55:53;14.02;;;9.23;;
41927;SDS011;27616;51.420;6.788;2022-09-28T09:58:37;13.83;;;8.70;;
41927;SDS011;27616;51.420;6.788;2022-09-28T10:01:16;13.67;;;9.03;;
41927;SDS011;27616;51.420;6.788;2022-09-28T10:04:23;17.97;;;9.17;;
41927;SDS011;27616;51.420;6.788;2022-09-28T10:06:57;14.47;;;8.70;;
41927;SDS011;27616;51.420;6.788;2022-09-28T10:09:30;13.37;;;8.63;;
41927;SDS011;27616;51.420;6.788;2022-09-28T10:12:27;11.20;;;6.87;;
41927;SDS011;27616;51.420;6.788;2022-09-28T10:14:54;15.63;;;8.73;;
41927;SDS011;27616;51.420;6.788;2022-09-28T10:17:21;13.17;;;8.47;;
41927;SDS011;27616;51.420;6.788;2022-09-28T10:20:13;13.07;;;7.00;;
41927;SDS011;27616;51.420;6.788;2022-09-28T10:22:40;14.37;;;6.93;;
41927;SDS011;27616;51.420;6.788;2022-09-28T10:25:12;17.87;;;7.60;;
41927;SDS011;27616;51.420;6.788;2022-09-28T10:27:40;23.77;;;8.63;;
41927;SDS011;27616;51.420;6.788;2022-09-28T10:30:16;17.00;;;6.43;;
41927;SDS011;27616;51.420;6.788;2022-09-28T10:32:44;13.00;;;6.70;;
41927;SDS011;27616;51.420;6.788;2022-09-28T10:35:16;9.20;;;5.73;;
41927;SDS011;27616;51.420;6.788;2022-09-28T10:38:14;10.43;;;5.83;;
41927;SDS011;27616;51.420;6.788;2022-09-28T10:40:50;9.17;;;5.90;;
41927;SDS011;27616;51.420;6.788;2022-09-28T10:43:51;8.93;;;5.10;;
41927;SDS011;27616;51.420;6.788;2022-09-28T10:46:58;6.87;;;5.33;;
41927;SDS011;27616;51.420;6.788;2022-09-28T10:49:30;9.90;;;5.72;;
41927;SDS011;27616;51.420;6.788;2022-09-28T10:52:08;6.88;;;4.60;;
41927;SDS011;27616;51.420;6.788;2022-09-28T10:55:32;8.50;;;5.10;;
41927;SDS011;27616;51.420;6.788;2022-09-28T10:58:16;5.63;;;3.92;;
41927;SDS011;27616;51.420;6.788;2022-09-28T11:00:50;7.47;;;4.43;;
41927;SDS011;27616;51.420;6.788;2022-09-28T11:03:21;7.47;;;4.72;;
41927;SDS011;27616;51.420;6.788;2022-09-28T11:05:56;8.60;;;5.07;;
41927;SDS011;27616;51.420;6.788;2022-09-28T11:08:28;7.90;;;4.43;;
41927;SDS011;27616;51.420;6.788;2022-09-28T11:11:17;7.90;;;4.45;;
41927;SDS011;27616;51.420;6.788;2022-09-28T11:13:53;6.07;;;3.87;;
41927;SDS011;27616;51.420;6.788;2022-09-28T11:16:30;5.07;;;3.60;;
41927;SDS011;27616;51.420;6.788;2022-09-28T11:19:23;10.43;;;3.77;;
41927;SDS011;27616;51.420;6.788;2022-09-28T11:21:54;4.90;;;3.10;;
41927;SDS011;27616;51.420;6.788;2022-09-28T11:24:26;7.95;;;3.33;;
41927;SDS011;27616;51.420;6.788;2022-09-28T11:26:56;7.30;;;3.63;;
41927;SDS011;27616;51.420;6.788;2022-09-28T11:29:42;5.88;;;3.45;;
41927;SDS011;27616;51.420;6.788;2022-09-28T11:32:15;11.52;;;3.92;;
41927;SDS011;27616;51.420;6.788;2022-09-28T11:35:15;6.70;;;2.97;;
41927;SDS011;27616;51.420;6.788;2022-09-28T11:41:30;6.47;;;3.75;;
41927;SDS011;27616;51.420;6.788;2022-09-28T11:49:46;8.13;;;3.90;;
41927;SDS011;27616;51.420;6.788;2022-09-28T11:55:31;6.88;;;3.75;;
41927;SDS011;27616;51.420;6.788;2022-09-28T11:58:02;8.90;;;3.78;;
41927;SDS011;27616;51.420;6.788;2022-09-28T12:00:59;4.78;;;3.20;;
41927;SDS011;27616;51.420;6.788;2022-09-28T12:04:14;7.15;;;3.28;;
41927;SDS011;27616;51.420;6.788;2022-09-28T12:06:58;6.70;;;2.78;;
41927;SDS011;27616;51.420;6.788;2022-09-28T12:09:37;7.07;;;3.15;;
41927;SDS011;27616;51.420;6.788;2022-09-28T12:12:32;4.63;;;2.70;;
41927;SDS011;27616;51.420;6.788;2022-09-28T12:15:13;4.95;;;2.75;;
41927;SDS011;27616;51.420;6.788;2022-09-28T12:17:44;4.40;;;2.80;;
41927;SDS011;27616;51.420;6.788;2022-09-28T12:20:32;6.78;;;2.97;;
41927;SDS011;27616;51.420;6.788;2022-09-28T12:25:43;4.22;;;2.50;;
41927;SDS011;27616;51.420;6.788;2022-09-28T12:31:06;11.05;;;4.95;;
41927;SDS011;27616;51.420;6.788;2022-09-28T12:33:50;5.72;;;3.08;;
41927;SDS011;27616;51.420;6.788;2022-09-28T12:36:29;5.45;;;2.65;;
41927;SDS011;27616;51.420;6.788;2022-09-28T12:39:18;5.05;;;2.58;;
41927;SDS011;27616;51.420;6.788;2022-09-28T12:42:03;5.25;;;2.60;;
41927;SDS011;27616;51.420;6.788;2022-09-28T12:45:00;6.32;;;2.33;;
41927;SDS011;27616;51.420;6.788;2022-09-28T12:50:00;6.25;;;2.45;;
41927;SDS011;27616;51.420;6.788;2022-09-28T12:52:37;5.75;;;3.00;;
41927;SDS011;27616;51.420;6.788;2022-09-28T12:55:29;4.97;;;2.63;;
41927;SDS011;27616;51.420;6.788;2022-09-28T13:09:22;3.22;;;1.67;;
41927;SDS011;27616;51.420;6.788;2022-09-28T13:11:54;3.22;;;1.85;;
41927;SDS011;27616;51.420;6.788;2022-09-28T13:20:16;4.57;;;2.10;;
41927;SDS011;27616;51.420;6.788;2022-09-28T13:23:03;5.40;;;2.30;;
41927;SDS011;27616;51.420;6.788;2022-09-28T13:25:55;4.32;;;2.17;;
41927;SDS011;27616;51.420;6.788;2022-09-28T13:28:33;3.25;;;1.70;;
41927;SDS011;27616;51.420;6.788;2022-09-28T13:31:02;3.90;;;1.50;;
41927;SDS011;27616;51.420;6.788;2022-09-28T13:33:38;4.65;;;2.28;;
41927;SDS011;27616;51.420;6.788;2022-09-28T13:38:52;6.93;;;2.85;;
41927;SDS011;27616;51.420;6.788;2022-09-28T13:41:44;6.38;;;2.92;;
41927;SDS011;27616;51.420;6.788;2022-09-28T13:49:16;5.60;;;2.30;;
41927;SDS011;27616;51.420;6.788;2022-09-28T13:51:48;3.78;;;2.30;;
41927;SDS011;27616;51.420;6.788;2022-09-28T13:57:15;4.10;;;2.75;;
41927;SDS011;27616;51.420;6.788;2022-09-28T14:05:43;3.03;;;1.88;;
41927;SDS011;27616;51.420;6.788;2022-09-28T14:08:37;3.33;;;2.20;;
41927;SDS011;27616;51.420;6.788;2022-09-28T14:16:30;2.80;;;1.95;;
41927;SDS011;27616;51.420;6.788;2022-09-28T14:19:07;5.22;;;2.63;;
41927;SDS011;27616;51.420;6.788;2022-09-28T14:29:31;5.65;;;2.70;;
41927;SDS011;27616;51.420;6.788;2022-09-28T14:32:03;5.10;;;2.10;;
41927;SDS011;27616;51.420;6.788;2022-09-28T14:34:46;4.38;;;2.50;;
41927;SDS011;27616;51.420;6.788;2022-09-28T14:37:24;6.50;;;2.38;;
41927;SDS011;27616;51.420;6.788;2022-09-28T14:40:23;5.63;;;2.33;;
41927;SDS011;27616;51.420;6.788;2022-09-28T14:43:35;3.10;;;2.00;;
41927;SDS011;27616;51.420;6.788;2022-09-28T14:54:04;1.98;;;1.10;;
41927;SDS011;27616;51.420;6.788;2022-09-28T14:59:37;2.08;;;0.75;;
41927;SDS011;27616;51.420;6.788;2022-09-28T15:04:35;2.05;;;0.93;;
41927;SDS011;27616;51.420;6.788;2022-09-28T15:07:05;1.67;;;1.00;;
41927;SDS011;27616;51.420;6.788;2022-09-28T15:09:34;3.90;;;1.30;;
41927;SDS011;27616;51.420;6.788;2022-09-28T15:12:02;2.88;;;0.90;;
41927;SDS011;27616;51.420;6.788;2022-09-28T15:14:47;1.77;;;0.73;;
41927;SDS011;27616;51.420;6.788;2022-09-28T15:17:27;2.85;;;1.00;;
41927;SDS011;27616;51.420;6.788;2022-09-28T15:22:33;2.93;;;1.00;;
41927;SDS011;27616;51.420;6.788;2022-09-28T15:25:01;2.17;;;0.90;;
41927;SDS011;27616;51.420;6.788;2022-09-28T15:27:35;3.63;;;1.02;;
41927;SDS011;27616;51.420;6.788;2022-09-28T15:30:19;2.50;;;0.90;;
41927;SDS011;27616;51.420;6.788;2022-09-28T15:32:54;2.13;;;1.02;;
41927;SDS011;27616;51.420;6.788;2022-09-28T15:35:40;3.37;;;1.40;;
41927;SDS011;27616;51.420;6.788;2022-09-28T15:38:08;1.55;;;0.88;;
41927;SDS011;27616;51.420;6.788;2022-09-28T15:40:39;1.00;;;0.77;;
41927;SDS011;27616;51.420;6.788;2022-09-28T15:43:24;2.57;;;0.97;;
41927;SDS011;27616;51.420;6.788;2022-09-28T15:46:05;2.67;;;1.00;;
41927;SDS011;27616;51.420;6.788;2022-09-28T15:51:19;1.70;;;0.95;;
41927;SDS011;27616;51.420;6.788;2022-09-28T15:56:23;2.30;;;1.13;;
41927;SDS011;27616;51.420;6.788;2022-09-28T15:59:09;2.90;;;1.37;;
41927;SDS011;27616;51.420;6.788;2022-09-28T16:01:46;2.83;;;1.60;;
41927;SDS011;27616;51.420;6.788;2022-09-28T16:04:31;3.90;;;1.80;;
41927;SDS011;27616;51.420;6.788;2022-09-28T16:07:04;2.57;;;1.57;;
41927;SDS011;27616;51.420;6.788;2022-09-28T16:09:30;3.30;;;1.40;;
41927;SDS011;27616;51.420;6.788;2022-09-28T16:12:06;2.97;;;1.20;;
41927;SDS011;27616;51.420;6.788;2022-09-28T16:14:35;2.93;;;1.03;;
41927;SDS011;27616;51.420;6.788;2022-09-28T16:17:01;2.27;;;0.97;;
41927;SDS011;27616;51.420;6.788;2022-09-28T16:19:29;1.97;;;0.93;;
41927;SDS011;27616;51.420;6.788;2022-09-28T16:22:04;2.30;;;0.77;;
41927;SDS011;27616;51.420;6.788;2022-09-28T16:24:32;1.37;;;0.87;;
41927;SDS011;27616;51.420;6.788;2022-09-28T16:27:07;1.80;;;0.90;;
41927;SDS011;27616;51.420;6.788;2022-09-28T16:30:11;1.93;;;0.83;;
41927;SDS011;27616;51.420;6.788;2022-09-28T16:33:00;1.57;;;0.90;;
41927;SDS011;27616;51.420;6.788;2022-09-28T16:38:09;2.37;;;1.00;;
41927;SDS011;27616;51.420;6.788;2022-09-28T16:40:39;2.67;;;1.20;;
41927;SDS011;27616;51.420;6.788;2022-09-28T16:43:08;3.73;;;1.40;;
41927;SDS011;27616;51.420;6.788;2022-09-28T16:46:07;2.43;;;1.37;;
41927;SDS011;27616;51.420;6.788;2022-09-28T16:48:35;3.10;;;1.00;;
41927;SDS011;27616;51.420;6.788;2022-09-28T16:51:03;2.53;;;1.07;;
41927;SDS011;27616;51.420;6.788;2022-09-28T16:53:29;2.80;;;1.07;;
41927;SDS011;27616;51.420;6.788;2022-09-28T16:56:13;2.97;;;1.20;;
41927;SDS011;27616;51.420;6.788;2022-09-28T16:58:39;2.67;;;1.20;;
41927;SDS011;27616;51.420;6.788;2022-09-28T17:01:10;2.83;;;1.00;;
41927;SDS011;27616;51.420;6.788;2022-09-28T17:03:36;4.00;;;1.40;;
41927;SDS011;27616;51.420;6.788;2022-09-28T17:06:04;2.83;;;1.40;;
41927;SDS011;27616;51.420;6.788;2022-09-28T17:08:32;3.28;;;1.33;;
41927;SDS011;27616;51.420;6.788;2022-09-28T17:10:59;3.60;;;1.30;;
41927;SDS011;27616;51.420;6.788;2022-09-28T17:13:29;3.35;;;1.50;;
41927;SDS011;27616;51.420;6.788;2022-09-28T17:16:05;4.90;;;1.63;;
41927;SDS011;27616;51.420;6.788;2022-09-28T17:18:35;5.47;;;1.73;;
41927;SDS011;27616;51.420;6.788;2022-09-28T17:21:04;4.70;;;2.30;;
41927;SDS011;27616;51.420;6.788;2022-09-28T17:23:31;5.40;;;2.30;;
41927;SDS011;27616;51.420;6.788;2022-09-28T17:25:57;4.80;;;2.40;;
41927;SDS011;27616;51.420;6.788;2022-09-28T17:28:27;5.93;;;2.90;;
41927;SDS011;27616;51.420;6.788;2022-09-28T17:30:56;5.30;;;2.43;;
41927;SDS011;27616;51.420;6.788;2022-09-28T17:33:22;5.00;;;2.03;;
41927;SDS011;27616;51.420;6.788;2022-09-28T17:35:47;5.73;;;2.30;;
41927;SDS011;27616;51.420;6.788;2022-09-28T17:38:17;5.68;;;2.35;;
41927;SDS011;27616;51.420;6.788;2022-09-28T17:40:43;6.47;;;2.80;;
41927;SDS011;27616;51.420;6.788;2022-09-28T17:43:09;7.33;;;3.97;;
41927;SDS011;27616;51.420;6.788;2022-09-28T17:45:36;6.90;;;3.80;;
41927;SDS011;27616;51.420;6.788;2022-09-28T17:48:04;6.13;;;3.00;;
41927;SDS011;27616;51.420;6.788;2022-09-28T17:50:31;5.53;;;2.93;;
41927;SDS011;27616;51.420;6.788;2022-09-28T17:52:59;7.30;;;2.90;;
41927;SDS011;27616;51.420;6.788;2022-09-28T17:55:30;6.67;;;2.93;;
41927;SDS011;27616;51.420;6.788;2022-09-28T17:57:59;6.27;;;2.80;;
41927;SDS011;27616;51.420;6.788;2022-09-28T18:00:26;5.60;;;3.10;;
41927;SDS011;27616;51.420;6.788;2022-09-28T18:02:53;6.93;;;3.40;;
41927;SDS011;27616;51.420;6.788;2022-09-28T18:05:19;7.70;;;3.40;;
41927;SDS011;27616;51.420;6.788;2022-09-28T18:07:45;10.73;;;3.80;;
41927;SDS011;27616;51.420;6.788;2022-09-28T18:10:21;9.90;;;4.17;;
41927;SDS011;27616;51.420;6.788;2022-09-28T18:12:48;8.80;;;3.50;;
41927;SDS011;27616;51.420;6.788;2022-09-28T18:15:15;12.47;;;3.90;;
41927;SDS011;27616;51.420;6.788;2022-09-28T18:17:42;10.17;;;4.27;;